Weishample, Pennsylvania
Current Conditions -  °F | °C
As of 7:58 AM on Sunday 23 Nov 2014 (Local Time) from KMUI Reporting Station
Overcast Overcast  
Wind Chill: 34°   Ceiling: 7000
Heat Index: 34°   Visibility: 10mi
Dew Point: 26°   Wind: 2mph
Humidity: 72%   Direction: 360°N
Pressure: 30.22"   Gusts: NA
Location:  40.6638°N, 76.4802°W
Report Text: KMUI 231258Z AUTO 36002KT 10SM OVC070 01/M03 A3022 RMK AO2 SLP241 T00111034 $
Loading
Personal Weather Stations






























Interactive Weather Map New forecast layout! Learn more

10-Day Weather Forecast

Advertisements
Track Severe Weather on mobile